sensor_id;sensor_type;location;lat;lon;timestamp;temperature;humidity
47921;DHT22;33686;48.770;9.186;2023-07-22T06:17:46;22.20;99.90
47921;DHT22;33686;48.770;9.186;2023-07-22T06:20:11;22.10;99.90
47921;DHT22;33686;48.770;9.186;2023-07-22T06:22:37;22.70;99.90
47921;DHT22;33686;48.770;9.186;2023-07-22T06:25:03;24.00;99.90
47921;DHT22;33686;48.770;9.186;2023-07-22T06:27:29;24.50;99.90
47921;DHT22;33686;48.770;9.186;2023-07-22T06:29:54;24.20;99.90
47921;DHT22;33686;48.770;9.186;2023-07-22T06:32:20;24.00;99.90
47921;DHT22;33686;48.770;9.186;2023-07-22T06:34:46;24.50;99.90
47921;DHT22;33686;48.770;9.186;2023-07-22T06:37:11;24.80;99.90
47921;DHT22;33686;48.770;9.186;2023-07-22T06:39:37;25.20;99.90
47921;DHT22;33686;48.770;9.186;2023-07-22T06:42:02;25.30;99.90
47921;DHT22;33686;48.770;9.186;2023-07-22T06:44:28;25.70;99.90
47921;DHT22;33686;48.770;9.186;2023-07-22T06:46:53;25.80;99.90
47921;DHT22;33686;48.770;9.186;2023-07-22T06:49:19;25.60;99.90
47921;DHT22;33686;48.770;9.186;2023-07-22T06:51:44;25.20;99.90
47921;DHT22;33686;48.770;9.186;2023-07-22T06:54:10;24.50;99.90
47921;DHT22;33686;48.770;9.186;2023-07-22T06:56:35;25.70;99.90
47921;DHT22;33686;48.770;9.186;2023-07-22T06:59:01;26.70;99.40
47921;DHT22;33686;48.770;9.186;2023-07-22T07:01:27;26.20;99.30
47921;DHT22;33686;48.770;9.186;2023-07-22T07:03:52;25.60;99.90
47921;DHT22;33686;48.770;9.186;2023-07-22T07:06:18;26.10;99.80
47921;DHT22;33686;48.770;9.186;2023-07-22T07:08:43;26.40;99.30
47921;DHT22;33686;48.770;9.186;2023-07-22T07:11:09;26.20;99.50
47921;DHT22;33686;48.770;9.186;2023-07-22T07:13:34;25.90;99.70
47921;DHT22;33686;48.770;9.186;2023-07-22T07:16:19;26.30;99.10
47921;DHT22;33686;48.770;9.186;2023-07-22T07:18:45;25.90;99.80
47921;DHT22;33686;48.770;9.186;2023-07-22T07:21:10;26.30;98.70
47921;DHT22;33686;48.770;9.186;2023-07-22T07:23:36;26.40;98.90
47921;DHT22;33686;48.770;9.186;2023-07-22T07:26:01;26.50;98.60
47921;DHT22;33686;48.770;9.186;2023-07-22T07:28:27;26.30;98.70
47921;DHT22;33686;48.770;9.186;2023-07-22T07:30:52;27.30;97.10
47921;DHT22;33686;48.770;9.186;2023-07-22T07:33:18;27.50;96.80
47921;DHT22;33686;48.770;9.186;2023-07-22T07:35:45;26.90;97.40
47921;DHT22;33686;48.770;9.186;2023-07-22T07:38:11;28.10;96.20
47921;DHT22;33686;48.770;9.186;2023-07-22T07:40:37;27.60;96.40
47921;DHT22;33686;48.770;9.186;2023-07-22T07:43:02;28.20;95.60
47921;DHT22;33686;48.770;9.186;2023-07-22T07:45:28;28.00;95.60
47921;DHT22;33686;48.770;9.186;2023-07-22T07:47:53;28.30;95.30
47921;DHT22;33686;48.770;9.186;2023-07-22T07:50:19;27.60;96.50
47921;DHT22;33686;48.770;9.186;2023-07-22T07:52:45;27.50;96.20
47921;DHT22;33686;48.770;9.186;2023-07-22T07:55:10;27.80;96.30
47921;DHT22;33686;48.770;9.186;2023-07-22T07:57:36;28.50;95.90
47921;DHT22;33686;48.770;9.186;2023-07-22T08:00:02;27.80;96.00
47921;DHT22;33686;48.770;9.186;2023-07-22T08:02:30;28.30;95.80
47921;DHT22;33686;48.770;9.186;2023-07-22T08:04:55;29.40;93.30
47921;DHT22;33686;48.770;9.186;2023-07-22T08:07:21;28.80;92.80
47921;DHT22;33686;48.770;9.186;2023-07-22T08:09:47;29.10;92.60
47921;DHT22;33686;48.770;9.186;2023-07-22T08:12:15;29.10;92.10
47921;DHT22;33686;48.770;9.186;2023-07-22T08:14:41;29.00;91.90
47921;DHT22;33686;48.770;9.186;2023-07-22T08:17:07;29.30;90.90
47921;DHT22;33686;48.770;9.186;2023-07-22T08:19:32;30.40;90.30
47921;DHT22;33686;48.770;9.186;2023-07-22T08:21:58;30.60;88.80
47921;DHT22;33686;48.770;9.186;2023-07-22T08:24:23;30.90;88.40
47921;DHT22;33686;48.770;9.186;2023-07-22T08:26:49;31.50;86.80
47921;DHT22;33686;48.770;9.186;2023-07-22T08:29:14;30.60;87.80
47921;DHT22;33686;48.770;9.186;2023-07-22T08:31:40;31.00;86.50
47921;DHT22;33686;48.770;9.186;2023-07-22T08:34:06;31.40;84.90
47921;DHT22;33686;48.770;9.186;2023-07-22T08:36:31;31.50;84.90
47921;DHT22;33686;48.770;9.186;2023-07-22T08:38:57;31.40;84.00
47921;DHT22;33686;48.770;9.186;2023-07-22T08:41:22;30.80;84.70
47921;DHT22;33686;48.770;9.186;2023-07-22T08:43:50;31.20;84.70
47921;DHT22;33686;48.770;9.186;2023-07-22T08:46:16;31.40;84.10
47921;DHT22;33686;48.770;9.186;2023-07-22T08:48:45;31.80;82.70
47921;DHT22;33686;48.770;9.186;2023-07-22T08:53:40;31.40;82.60
47921;DHT22;33686;48.770;9.186;2023-07-22T08:56:05;31.20;82.90
47921;DHT22;33686;48.770;9.186;2023-07-22T08:58:31;31.00;83.00
47921;DHT22;33686;48.770;9.186;2023-07-22T09:00:57;31.10;81.70
47921;DHT22;33686;48.770;9.186;2023-07-22T09:03:23;31.20;80.50
47921;DHT22;33686;48.770;9.186;2023-07-22T09:05:49;30.40;79.50
47921;DHT22;33686;48.770;9.186;2023-07-22T09:08:15;28.40;80.70
47921;DHT22;33686;48.770;9.186;2023-07-22T09:10:43;28.30;82.00
47921;DHT22;33686;48.770;9.186;2023-07-22T09:13:09;27.60;82.40
47921;DHT22;33686;48.770;9.186;2023-07-22T09:15:35;26.70;83.90
47921;DHT22;33686;48.770;9.186;2023-07-22T09:18:02;26.40;83.90
47921;DHT22;33686;48.770;9.186;2023-07-22T09:20:27;25.40;84.90
47921;DHT22;33686;48.770;9.186;2023-07-22T09:22:54;24.90;86.40
47921;DHT22;33686;48.770;9.186;2023-07-22T09:27:49;24.70;87.30
47921;DHT22;33686;48.770;9.186;2023-07-22T09:32:43;25.10;87.60
47921;DHT22;33686;48.770;9.186;2023-07-22T09:35:09;24.60;88.20
47921;DHT22;33686;48.770;9.186;2023-07-22T09:37:38;24.30;89.30
47921;DHT22;33686;48.770;9.186;2023-07-22T09:40:13;24.30;90.10
47921;DHT22;33686;48.770;9.186;2023-07-22T09:42:42;24.30;89.20
47921;DHT22;33686;48.770;9.186;2023-07-22T09:45:08;24.40;89.30
47921;DHT22;33686;48.770;9.186;2023-07-22T09:47:43;25.20;88.90
47921;DHT22;33686;48.770;9.186;2023-07-22T09:50:10;25.40;88.50
47921;DHT22;33686;48.770;9.186;2023-07-22T09:53:10;25.60;87.90
47921;DHT22;33686;48.770;9.186;2023-07-22T09:55:29;25.70;88.20
47921;DHT22;33686;48.770;9.186;2023-07-22T09:58:02;25.70;89.40
47921;DHT22;33686;48.770;9.186;2023-07-22T10:00:28;26.00;88.00
47921;DHT22;33686;48.770;9.186;2023-07-22T10:02:55;26.20;87.00
47921;DHT22;33686;48.770;9.186;2023-07-22T10:05:21;26.80;86.50
47921;DHT22;33686;48.770;9.186;2023-07-22T10:07:50;27.70;85.40
47921;DHT22;33686;48.770;9.186;2023-07-22T10:10:17;27.90;84.00
47921;DHT22;33686;48.770;9.186;2023-07-22T10:12:43;28.30;83.20
47921;DHT22;33686;48.770;9.186;2023-07-22T10:15:13;28.00;83.00
47921;DHT22;33686;48.770;9.186;2023-07-22T10:17:40;28.20;82.90
47921;DHT22;33686;48.770;9.186;2023-07-22T10:20:06;28.10;82.30
47921;DHT22;33686;48.770;9.186;2023-07-22T10:22:36;27.60;83.40
47921;DHT22;33686;48.770;9.186;2023-07-22T10:25:03;26.70;83.50
47921;DHT22;33686;48.770;9.186;2023-07-22T10:27:29;26.10;84.70
47921;DHT22;33686;48.770;9.186;2023-07-22T10:29:56;26.10;84.90
47921;DHT22;33686;48.770;9.186;2023-07-22T10:32:21;26.10;84.20
47921;DHT22;33686;48.770;9.186;2023-07-22T10:34:47;25.90;85.00
47921;DHT22;33686;48.770;9.186;2023-07-22T10:37:12;25.80;84.60
47921;DHT22;33686;48.770;9.186;2023-07-22T10:39:38;25.80;85.90
47921;DHT22;33686;48.770;9.186;2023-07-22T10:42:04;26.00;84.80
47921;DHT22;33686;48.770;9.186;2023-07-22T10:44:33;26.20;85.30
47921;DHT22;33686;48.770;9.186;2023-07-22T10:46:59;26.50;84.00
47921;DHT22;33686;48.770;9.186;2023-07-22T10:49:27;26.90;83.70
47921;DHT22;33686;48.770;9.186;2023-07-22T10:51:53;26.70;84.20
47921;DHT22;33686;48.770;9.186;2023-07-22T10:54:32;26.70;84.00
47921;DHT22;33686;48.770;9.186;2023-07-22T10:59:56;26.70;83.80
47921;DHT22;33686;48.770;9.186;2023-07-22T11:02:26;26.40;84.70
47921;DHT22;33686;48.770;9.186;2023-07-22T11:04:52;26.70;83.90
47921;DHT22;33686;48.770;9.186;2023-07-22T11:07:29;26.60;83.90
47921;DHT22;33686;48.770;9.186;2023-07-22T11:09:55;26.80;83.50
47921;DHT22;33686;48.770;9.186;2023-07-22T11:12:20;27.10;83.30
47921;DHT22;33686;48.770;9.186;2023-07-22T11:14:51;26.80;82.80
47921;DHT22;33686;48.770;9.186;2023-07-22T11:17:17;26.60;83.20
47921;DHT22;33686;48.770;9.186;2023-07-22T11:19:43;26.10;83.60
47921;DHT22;33686;48.770;9.186;2023-07-22T11:22:09;26.20;84.10
47921;DHT22;33686;48.770;9.186;2023-07-22T11:24:35;26.20;84.30
47921;DHT22;33686;48.770;9.186;2023-07-22T11:27:04;26.10;84.80
47921;DHT22;33686;48.770;9.186;2023-07-22T11:29:30;26.20;85.00
47921;DHT22;33686;48.770;9.186;2023-07-22T11:31:56;26.20;85.50
47921;DHT22;33686;48.770;9.186;2023-07-22T11:34:23;25.90;86.30
47921;DHT22;33686;48.770;9.186;2023-07-22T11:36:49;26.10;86.60
47921;DHT22;33686;48.770;9.186;2023-07-22T11:39:23;26.10;86.40
47921;DHT22;33686;48.770;9.186;2023-07-22T11:41:49;26.10;87.10
47921;DHT22;33686;48.770;9.186;2023-07-22T11:44:26;26.00;86.80
47921;DHT22;33686;48.770;9.186;2023-07-22T11:51:49;25.90;87.20
47921;DHT22;33686;48.770;9.186;2023-07-22T11:54:15;26.20;87.00
47921;DHT22;33686;48.770;9.186;2023-07-22T11:56:42;26.30;87.20
47921;DHT22;33686;48.770;9.186;2023-07-22T11:59:08;26.30;87.90
47921;DHT22;33686;48.770;9.186;2023-07-22T12:01:33;26.10;87.20
47921;DHT22;33686;48.770;9.186;2023-07-22T12:03:59;26.30;87.00
47921;DHT22;33686;48.770;9.186;2023-07-22T12:06:25;25.50;87.40
47921;DHT22;33686;48.770;9.186;2023-07-22T12:08:51;25.60;88.20
47921;DHT22;33686;48.770;9.186;2023-07-22T12:13:43;25.30;88.10
47921;DHT22;33686;48.770;9.186;2023-07-22T12:16:11;25.00;89.30
47921;DHT22;33686;48.770;9.186;2023-07-22T12:18:41;24.80;89.80
47921;DHT22;33686;48.770;9.186;2023-07-22T12:21:07;24.80;89.30
47921;DHT22;33686;48.770;9.186;2023-07-22T12:23:32;25.10;89.40
47921;DHT22;33686;48.770;9.186;2023-07-22T12:25:58;25.70;89.20
47921;DHT22;33686;48.770;9.186;2023-07-22T12:31:01;25.90;87.90
47921;DHT22;33686;48.770;9.186;2023-07-22T12:33:27;26.20;87.60
47921;DHT22;33686;48.770;9.186;2023-07-22T12:35:53;26.20;86.80
47921;DHT22;33686;48.770;9.186;2023-07-22T12:38:18;26.40;86.80
47921;DHT22;33686;48.770;9.186;2023-07-22T12:40:44;26.20;86.70
47921;DHT22;33686;48.770;9.186;2023-07-22T12:43:09;26.30;86.80
47921;DHT22;33686;48.770;9.186;2023-07-22T12:45:35;26.30;86.20
47921;DHT22;33686;48.770;9.186;2023-07-22T12:48:01;26.00;86.30
47921;DHT22;33686;48.770;9.186;2023-07-22T12:50:28;26.10;85.60
47921;DHT22;33686;48.770;9.186;2023-07-22T12:52:54;26.10;85.00
47921;DHT22;33686;48.770;9.186;2023-07-22T12:55:20;26.00;85.00
47921;DHT22;33686;48.770;9.186;2023-07-22T12:57:45;25.90;85.50
47921;DHT22;33686;48.770;9.186;2023-07-22T13:00:11;26.10;85.30
47921;DHT22;33686;48.770;9.186;2023-07-22T13:02:37;26.00;85.10
47921;DHT22;33686;48.770;9.186;2023-07-22T13:05:03;26.00;84.80
47921;DHT22;33686;48.770;9.186;2023-07-22T13:07:29;26.50;84.60
47921;DHT22;33686;48.770;9.186;2023-07-22T13:09:55;26.70;83.70
47921;DHT22;33686;48.770;9.186;2023-07-22T13:12:22;26.40;84.80
47921;DHT22;33686;48.770;9.186;2023-07-22T13:14:48;26.60;84.30
47921;DHT22;33686;48.770;9.186;2023-07-22T13:17:13;26.80;83.40
47921;DHT22;33686;48.770;9.186;2023-07-22T13:19:39;26.70;84.00
47921;DHT22;33686;48.770;9.186;2023-07-22T13:22:04;26.70;84.40
47921;DHT22;33686;48.770;9.186;2023-07-22T13:24:30;27.00;83.70
47921;DHT22;33686;48.770;9.186;2023-07-22T13:26:55;27.00;83.20
47921;DHT22;33686;48.770;9.186;2023-07-22T13:29:21;26.90;83.00
47921;DHT22;33686;48.770;9.186;2023-07-22T13:31:46;26.70;83.00
47921;DHT22;33686;48.770;9.186;2023-07-22T13:34:12;26.40;83.40
47921;DHT22;33686;48.770;9.186;2023-07-22T13:36:37;26.90;83.20
47921;DHT22;33686;48.770;9.186;2023-07-22T13:39:03;26.90;82.90
47921;DHT22;33686;48.770;9.186;2023-07-22T13:41:28;26.50;83.30
47921;DHT22;33686;48.770;9.186;2023-07-22T13:43:54;26.40;83.30
47921;DHT22;33686;48.770;9.186;2023-07-22T13:46:19;26.70;83.60
47921;DHT22;33686;48.770;9.186;2023-07-22T13:48:45;26.80;81.80
47921;DHT22;33686;48.770;9.186;2023-07-22T13:51:11;26.80;81.80
47921;DHT22;33686;48.770;9.186;2023-07-22T13:53:36;26.90;81.70
47921;DHT22;33686;48.770;9.186;2023-07-22T13:56:02;26.80;82.00
47921;DHT22;33686;48.770;9.186;2023-07-22T13:58:28;27.10;81.80
47921;DHT22;33686;48.770;9.186;2023-07-22T14:00:54;26.90;82.30
47921;DHT22;33686;48.770;9.186;2023-07-22T14:03:19;27.20;82.80
47921;DHT22;33686;48.770;9.186;2023-07-22T14:05:45;27.00;82.40
47921;DHT22;33686;48.770;9.186;2023-07-22T14:08:11;27.10;82.80
47921;DHT22;33686;48.770;9.186;2023-07-22T14:10:37;27.30;82.90
47921;DHT22;33686;48.770;9.186;2023-07-22T14:13:02;27.20;82.30
47921;DHT22;33686;48.770;9.186;2023-07-22T14:15:28;27.00;82.40
47921;DHT22;33686;48.770;9.186;2023-07-22T14:17:53;27.00;82.60
47921;DHT22;33686;48.770;9.186;2023-07-22T14:20:19;26.80;82.80
47921;DHT22;33686;48.770;9.186;2023-07-22T14:22:45;27.00;83.40
47921;DHT22;33686;48.770;9.186;2023-07-22T14:25:10;27.20;82.90
47921;DHT22;33686;48.770;9.186;2023-07-22T14:27:39;27.70;82.70
47921;DHT22;33686;48.770;9.186;2023-07-22T14:30:05;27.90;82.80
47921;DHT22;33686;48.770;9.186;2023-07-22T14:32:31;28.00;82.00
47921;DHT22;33686;48.770;9.186;2023-07-22T14:34:57;27.70;82.30
47921;DHT22;33686;48.770;9.186;2023-07-22T14:37:22;27.80;82.20
47921;DHT22;33686;48.770;9.186;2023-07-22T14:39:48;27.40;82.90
47921;DHT22;33686;48.770;9.186;2023-07-22T14:42:14;27.00;82.30
47921;DHT22;33686;48.770;9.186;2023-07-22T14:44:39;27.00;83.10
47921;DHT22;33686;48.770;9.186;2023-07-22T14:47:05;27.30;82.80
47921;DHT22;33686;48.770;9.186;2023-07-22T14:49:30;27.20;83.40
47921;DHT22;33686;48.770;9.186;2023-07-22T14:51:56;27.10;82.30
47921;DHT22;33686;48.770;9.186;2023-07-22T14:54:21;27.20;82.40
47921;DHT22;33686;48.770;9.186;2023-07-22T14:56:47;27.20;82.10
47921;DHT22;33686;48.770;9.186;2023-07-22T14:59:14;27.30;82.30
47921;DHT22;33686;48.770;9.186;2023-07-22T15:01:39;26.90;81.80
47921;DHT22;33686;48.770;9.186;2023-07-22T15:04:05;26.80;82.30
47921;DHT22;33686;48.770;9.186;2023-07-22T15:06:31;26.70;82.40
47921;DHT22;33686;48.770;9.186;2023-07-22T15:08:57;26.90;82.40
47921;DHT22;33686;48.770;9.186;2023-07-22T15:11:22;26.40;82.30
47921;DHT22;33686;48.770;9.186;2023-07-22T15:13:48;26.40;83.00
47921;DHT22;33686;48.770;9.186;2023-07-22T15:16:14;26.20;83.10
47921;DHT22;33686;48.770;9.186;2023-07-22T15:18:40;25.90;83.00
47921;DHT22;33686;48.770;9.186;2023-07-22T15:21:05;26.10;83.50
47921;DHT22;33686;48.770;9.186;2023-07-22T15:23:31;26.10;83.20
47921;DHT22;33686;48.770;9.186;2023-07-22T15:25:57;25.90;83.30
47921;DHT22;33686;48.770;9.186;2023-07-22T15:28:23;26.00;83.30
47921;DHT22;33686;48.770;9.186;2023-07-22T15:30:49;26.20;82.70
47921;DHT22;33686;48.770;9.186;2023-07-22T15:33:15;26.40;83.20
47921;DHT22;33686;48.770;9.186;2023-07-22T15:35:40;26.50;82.70
47921;DHT22;33686;48.770;9.186;2023-07-22T15:38:06;26.60;82.70
47921;DHT22;33686;48.770;9.186;2023-07-22T15:40:35;26.60;82.60
47921;DHT22;33686;48.770;9.186;2023-07-22T15:43:01;26.60;82.60
47921;DHT22;33686;48.770;9.186;2023-07-22T15:45:27;26.50;83.10
47921;DHT22;33686;48.770;9.186;2023-07-22T15:47:52;26.60;82.90
47921;DHT22;33686;48.770;9.186;2023-07-22T15:50:18;26.30;83.00
47921;DHT22;33686;48.770;9.186;2023-07-22T15:52:44;26.30;83.20
47921;DHT22;33686;48.770;9.186;2023-07-22T15:55:09;26.20;83.40
47921;DHT22;33686;48.770;9.186;2023-07-22T15:57:35;26.20;83.60
47921;DHT22;33686;48.770;9.186;2023-07-22T16:00:00;26.10;84.00
47921;DHT22;33686;48.770;9.186;2023-07-22T16:02:27;26.30;84.40
47921;DHT22;33686;48.770;9.186;2023-07-22T16:04:53;26.30;83.60
47921;DHT22;33686;48.770;9.186;2023-07-22T16:07:18;26.50;83.70
47921;DHT22;33686;48.770;9.186;2023-07-22T16:09:44;26.40;84.40
47921;DHT22;33686;48.770;9.186;2023-07-22T16:12:09;26.30;83.90
47921;DHT22;33686;48.770;9.186;2023-07-22T16:14:35;26.20;84.50
47921;DHT22;33686;48.770;9.186;2023-07-22T16:17:01;26.10;84.80
47921;DHT22;33686;48.770;9.186;2023-07-22T16:19:26;26.00;85.20
47921;DHT22;33686;48.770;9.186;2023-07-22T16:21:52;26.00;85.90
47921;DHT22;33686;48.770;9.186;2023-07-22T16:24:18;26.00;85.40
47921;DHT22;33686;48.770;9.186;2023-07-22T16:26:44;25.90;85.50
47921;DHT22;33686;48.770;9.186;2023-07-22T16:29:11;25.90;86.10
47921;DHT22;33686;48.770;9.186;2023-07-22T16:31:37;26.00;85.80
47921;DHT22;33686;48.770;9.186;2023-07-22T16:34:02;26.00;84.90
47921;DHT22;33686;48.770;9.186;2023-07-22T16:36:28;26.10;85.00
47921;DHT22;33686;48.770;9.186;2023-07-22T16:38:54;26.00;84.90
47921;DHT22;33686;48.770;9.186;2023-07-22T16:41:20;26.00;84.30
47921;DHT22;33686;48.770;9.186;2023-07-22T16:43:45;25.80;84.70
47921;DHT22;33686;48.770;9.186;2023-07-22T16:46:11;25.60;85.90
47921;DHT22;33686;48.770;9.186;2023-07-22T16:48:37;25.70;86.10
47921;DHT22;33686;48.770;9.186;2023-07-22T16:51:02;25.70;86.20
47921;DHT22;33686;48.770;9.186;2023-07-22T16:53:28;25.80;86.00
47921;DHT22;33686;48.770;9.186;2023-07-22T16:55:53;25.80;85.90
47921;DHT22;33686;48.770;9.186;2023-07-22T16:58:19;25.70;86.10
47921;DHT22;33686;48.770;9.186;2023-07-22T17:00:44;25.70;85.60
47921;DHT22;33686;48.770;9.186;2023-07-22T17:03:13;25.70;85.70
47921;DHT22;33686;48.770;9.186;2023-07-22T17:05:38;25.80;85.10
47921;DHT22;33686;48.770;9.186;2023-07-22T17:08:04;25.90;84.90
47921;DHT22;33686;48.770;9.186;2023-07-22T17:10:32;25.80;84.80
47921;DHT22;33686;48.770;9.186;2023-07-22T17:12:58;25.70;85.50
47921;DHT22;33686;48.770;9.186;2023-07-22T17:15:23;25.50;85.50
47921;DHT22;33686;48.770;9.186;2023-07-22T17:17:49;25.40;85.60
47921;DHT22;33686;48.770;9.186;2023-07-22T17:20:15;25.50;85.70
47921;DHT22;33686;48.770;9.186;2023-07-22T17:22:40;25.60;86.60
47921;DHT22;33686;48.770;9.186;2023-07-22T17:25:06;25.50;85.30
47921;DHT22;33686;48.770;9.186;2023-07-22T17:27:32;25.40;85.40
47921;DHT22;33686;48.770;9.186;2023-07-22T17:29:57;25.30;85.00
47921;DHT22;33686;48.770;9.186;2023-07-22T17:32:23;25.30;85.20
47921;DHT22;33686;48.770;9.186;2023-07-22T17:34:49;25.30;85.10
47921;DHT22;33686;48.770;9.186;2023-07-22T17:37:14;25.30;85.40
47921;DHT22;33686;48.770;9.186;2023-07-22T17:39:40;25.20;85.50
47921;DHT22;33686;48.770;9.186;2023-07-22T17:42:05;25.10;85.50
47921;DHT22;33686;48.770;9.186;2023-07-22T17:44:31;25.00;85.50
47921;DHT22;33686;48.770;9.186;2023-07-22T17:46:57;25.00;85.40
47921;DHT22;33686;48.770;9.186;2023-07-22T17:49:25;25.00;85.20
47921;DHT22;33686;48.770;9.186;2023-07-22T17:51:50;25.00;85.20
47921;DHT22;33686;48.770;9.186;2023-07-22T17:54:16;24.90;84.80
47921;DHT22;33686;48.770;9.186;2023-07-22T17:56:41;24.80;85.20
47921;DHT22;33686;48.770;9.186;2023-07-22T17:59:07;24.80;85.10
47921;DHT22;33686;48.770;9.186;2023-07-22T18:01:32;24.80;85.40
47921;DHT22;33686;48.770;9.186;2023-07-22T18:03:58;24.70;85.60
47921;DHT22;33686;48.770;9.186;2023-07-22T18:06:23;24.60;85.30
47921;DHT22;33686;48.770;9.186;2023-07-22T18:08:53;24.50;85.40
47921;DHT22;33686;48.770;9.186;2023-07-22T18:11:18;24.50;86.50
47921;DHT22;33686;48.770;9.186;2023-07-22T18:13:44;24.50;86.30
47921;DHT22;33686;48.770;9.186;2023-07-22T18:16:09;24.50;86.20
47921;DHT22;33686;48.770;9.186;2023-07-22T18:18:35;24.40;86.10
47921;DHT22;33686;48.770;9.186;2023-07-22T18:21:00;24.40;86.30
47921;DHT22;33686;48.770;9.186;2023-07-22T18:23:29;24.40;86.80
47921;DHT22;33686;48.770;9.186;2023-07-22T18:25:54;24.30;86.50
47921;DHT22;33686;48.770;9.186;2023-07-22T18:28:20;24.30;87.10
47921;DHT22;33686;48.770;9.186;2023-07-22T18:30:45;24.30;87.10
47921;DHT22;33686;48.770;9.186;2023-07-22T18:33:11;24.20;87.30
47921;DHT22;33686;48.770;9.186;2023-07-22T18:35:37;24.20;87.50
47921;DHT22;33686;48.770;9.186;2023-07-22T18:38:02;24.10;87.50
47921;DHT22;33686;48.770;9.186;2023-07-22T18:40:28;24.00;87.80
47921;DHT22;33686;48.770;9.186;2023-07-22T18:42:53;24.10;88.60
47921;DHT22;33686;48.770;9.186;2023-07-22T18:45:19;23.90;89.70
47921;DHT22;33686;48.770;9.186;2023-07-22T18:47:44;23.90;88.50
47921;DHT22;33686;48.770;9.186;2023-07-22T18:50:10;23.80;89.40
47921;DHT22;33686;48.770;9.186;2023-07-22T18:52:36;23.80;89.60
47921;DHT22;33686;48.770;9.186;2023-07-22T18:55:01;23.70;90.00
47921;DHT22;33686;48.770;9.186;2023-07-22T18:57:27;23.50;90.70
47921;DHT22;33686;48.770;9.186;2023-07-22T18:59:52;23.10;91.50
47921;DHT22;33686;48.770;9.186;2023-07-22T19:02:18;22.80;92.00
47921;DHT22;33686;48.770;9.186;2023-07-22T19:04:44;22.50;92.80
47921;DHT22;33686;48.770;9.186;2023-07-22T19:07:09;22.20;93.40
47921;DHT22;33686;48.770;9.186;2023-07-22T19:09:35;22.00;94.00
47921;DHT22;33686;48.770;9.186;2023-07-22T19:12:01;21.90;94.20
47921;DHT22;33686;48.770;9.186;2023-07-22T19:14:26;21.80;94.40
47921;DHT22;33686;48.770;9.186;2023-07-22T19:16:52;21.80;94.40
47921;DHT22;33686;48.770;9.186;2023-07-22T19:19:18;21.70;94.60
47921;DHT22;33686;48.770;9.186;2023-07-22T19:21:44;21.60;95.20
47921;DHT22;33686;48.770;9.186;2023-07-22T19:24:09;21.30;95.40
47921;DHT22;33686;48.770;9.186;2023-07-22T19:26:35;21.20;95.00
47921;DHT22;33686;48.770;9.186;2023-07-22T19:29:00;21.10;95.80
47921;DHT22;33686;48.770;9.186;2023-07-22T19:31:26;21.00;95.80
47921;DHT22;33686;48.770;9.186;2023-07-22T19:33:51;20.90;96.20
47921;DHT22;33686;48.770;9.186;2023-07-22T19:36:17;20.90;96.10
47921;DHT22;33686;48.770;9.186;2023-07-22T19:38:42;20.80;96.10
47921;DHT22;33686;48.770;9.186;2023-07-22T19:43:33;20.90;96.40
47921;DHT22;33686;48.770;9.186;2023-07-22T19:46:03;20.80;96.30
47921;DHT22;33686;48.770;9.186;2023-07-22T19:48:31;20.60;96.60
47921;DHT22;33686;48.770;9.186;2023-07-22T19:50:58;20.50;96.80
47921;DHT22;33686;48.770;9.186;2023-07-22T19:53:24;20.30;97.00
47921;DHT22;33686;48.770;9.186;2023-07-22T19:55:49;20.30;97.10
47921;DHT22;33686;48.770;9.186;2023-07-22T19:58:15;20.30;97.10
47921;DHT22;33686;48.770;9.186;2023-07-22T20:00:42;20.20;97.60
47921;DHT22;33686;48.770;9.186;2023-07-22T20:03:07;20.10;97.70
47921;DHT22;33686;48.770;9.186;2023-07-22T20:05:33;20.10;98.00
47921;DHT22;33686;48.770;9.186;2023-07-22T20:07:59;20.00;98.30
47921;DHT22;33686;48.770;9.186;2023-07-22T20:10:24;20.10;98.00
47921;DHT22;33686;48.770;9.186;2023-07-22T20:12:50;20.10;98.10
47921;DHT22;33686;48.770;9.186;2023-07-22T20:15:15;20.00;98.00
47921;DHT22;33686;48.770;9.186;2023-07-22T20:17:41;20.10;98.00
47921;DHT22;33686;48.770;9.186;2023-07-22T20:20:06;20.10;97.90
47921;DHT22;33686;48.770;9.186;2023-07-22T20:22:32;20.00;98.10
47921;DHT22;33686;48.770;9.186;2023-07-22T20:24:58;20.10;98.10
47921;DHT22;33686;48.770;9.186;2023-07-22T20:27:23;20.10;98.30
47921;DHT22;33686;48.770;9.186;2023-07-22T20:29:52;20.20;98.40
47921;DHT22;33686;48.770;9.186;2023-07-22T20:32:18;20.30;98.10
47921;DHT22;33686;48.770;9.186;2023-07-22T20:34:43;20.40;98.30
47921;DHT22;33686;48.770;9.186;2023-07-22T20:37:09;20.50;98.30
47921;DHT22;33686;48.770;9.186;2023-07-22T20:39:34;20.50;98.00
47921;DHT22;33686;48.770;9.186;2023-07-22T20:42:00;20.50;97.90
47921;DHT22;33686;48.770;9.186;2023-07-22T20:44:25;20.60;98.40
47921;DHT22;33686;48.770;9.186;2023-07-22T20:46:51;20.60;98.10
47921;DHT22;33686;48.770;9.186;2023-07-22T20:49:16;20.70;98.20
47921;DHT22;33686;48.770;9.186;2023-07-22T20:51:42;20.70;98.40
47921;DHT22;33686;48.770;9.186;2023-07-22T20:54:07;20.70;98.60
47921;DHT22;33686;48.770;9.186;2023-07-22T20:56:33;20.70;98.80
47921;DHT22;33686;48.770;9.186;2023-07-22T20:58:58;20.70;98.60
47921;DHT22;33686;48.770;9.186;2023-07-22T21:01:24;20.70;98.60
47921;DHT22;33686;48.770;9.186;2023-07-22T21:03:50;20.70;98.80
47921;DHT22;33686;48.770;9.186;2023-07-22T21:06:15;20.80;98.70
47921;DHT22;33686;48.770;9.186;2023-07-22T21:08:41;20.70;99.00
47921;DHT22;33686;48.770;9.186;2023-07-22T21:11:07;20.70;98.90
47921;DHT22;33686;48.770;9.186;2023-07-22T21:13:35;20.80;98.90
47921;DHT22;33686;48.770;9.186;2023-07-22T21:16:01;20.70;98.80
47921;DHT22;33686;48.770;9.186;2023-07-22T21:18:26;20.80;98.90
47921;DHT22;33686;48.770;9.186;2023-07-22T21:20:52;20.80;98.90
47921;DHT22;33686;48.770;9.186;2023-07-22T21:23:17;20.80;99.20
47921;DHT22;33686;48.770;9.186;2023-07-22T21:25:43;20.80;98.90
47921;DHT22;33686;48.770;9.186;2023-07-22T21:28:08;20.70;99.20
47921;DHT22;33686;48.770;9.186;2023-07-22T21:30:34;20.70;99.10
47921;DHT22;33686;48.770;9.186;2023-07-22T21:32:59;20.70;99.20
47921;DHT22;33686;48.770;9.186;2023-07-22T21:35:25;20.70;99.60
47921;DHT22;33686;48.770;9.186;2023-07-22T21:37:50;20.70;99.50
47921;DHT22;33686;48.770;9.186;2023-07-22T21:40:16;20.80;99.20
47921;DHT22;33686;48.770;9.186;2023-07-22T21:42:41;20.80;99.10
47921;DHT22;33686;48.770;9.186;2023-07-22T21:45:09;20.80;99.80
47921;DHT22;33686;48.770;9.186;2023-07-22T21:47:36;20.60;99.30
47921;DHT22;33686;48.770;9.186;2023-07-22T21:50:01;20.60;99.70
47921;DHT22;33686;48.770;9.186;2023-07-22T21:52:27;20.50;99.30
47921;DHT22;33686;48.770;9.186;2023-07-22T21:54:52;20.50;99.40
47921;DHT22;33686;48.770;9.186;2023-07-22T21:57:18;20.40;99.90
47921;DHT22;33686;48.770;9.186;2023-07-22T21:59:43;20.50;99.80
